sensor_id;sensor_type;location;lat;lon;timestamp;P1;durP1;ratioP1;P2;durP2;ratioP2
23280;SDS011;11809;56.390;-3.266;2024-03-25T00:01:27;2.58;;;0.80;;
23280;SDS011;11809;56.390;-3.266;2024-03-25T00:03:54;4.20;;;1.00;;
23280;SDS011;11809;56.390;-3.266;2024-03-25T00:06:20;2.53;;;0.98;;
23280;SDS011;11809;56.390;-3.266;2024-03-25T00:08:46;1.40;;;0.70;;
23280;SDS011;11809;56.390;-3.266;2024-03-25T00:11:13;2.83;;;1.00;;
23280;SDS011;11809;56.390;-3.266;2024-03-25T00:13:39;2.17;;;0.95;;
23280;SDS011;11809;56.390;-3.266;2024-03-25T00:16:06;2.83;;;0.90;;
23280;SDS011;11809;56.390;-3.266;2024-03-25T00:18:35;3.85;;;1.00;;
23280;SDS011;11809;56.390;-3.266;2024-03-25T00:21:02;1.92;;;0.88;;
23280;SDS011;11809;56.390;-3.266;2024-03-25T00:23:28;2.60;;;0.95;;
23280;SDS011;11809;56.390;-3.266;2024-03-25T00:25:54;2.50;;;1.10;;
23280;SDS011;11809;56.390;-3.266;2024-03-25T00:28:21;2.90;;;0.75;;
23280;SDS011;11809;56.390;-3.266;2024-03-25T00:30:47;3.17;;;1.00;;
23280;SDS011;11809;56.390;-3.266;2024-03-25T00:33:14;3.13;;;1.10;;
23280;SDS011;11809;56.390;-3.266;2024-03-25T00:35:42;3.55;;;1.17;;
23280;SDS011;11809;56.390;-3.266;2024-03-25T00:38:09;3.63;;;1.38;;
23280;SDS011;11809;56.390;-3.266;2024-03-25T00:40:35;4.57;;;1.40;;
23280;SDS011;11809;56.390;-3.266;2024-03-25T00:43:02;2.53;;;0.80;;
23280;SDS011;11809;56.390;-3.266;2024-03-25T00:45:28;3.33;;;1.17;;
23280;SDS011;11809;56.390;-3.266;2024-03-25T00:47:56;3.85;;;1.13;;
23280;SDS011;11809;56.390;-3.266;2024-03-25T00:50:22;3.60;;;1.00;;
23280;SDS011;11809;56.390;-3.266;2024-03-25T00:52:51;2.97;;;1.08;;
23280;SDS011;11809;56.390;-3.266;2024-03-25T00:55:17;3.67;;;1.15;;
23280;SDS011;11809;56.390;-3.266;2024-03-25T00:57:44;4.65;;;1.33;;
23280;SDS011;11809;56.390;-3.266;2024-03-25T01:00:11;4.30;;;1.20;;
23280;SDS011;11809;56.390;-3.266;2024-03-25T01:02:38;2.25;;;1.02;;
23280;SDS011;11809;56.390;-3.266;2024-03-25T01:05:05;3.65;;;1.13;;
23280;SDS011;11809;56.390;-3.266;2024-03-25T01:07:32;3.95;;;1.20;;
23280;SDS011;11809;56.390;-3.266;2024-03-25T01:10:01;2.58;;;0.90;;
23280;SDS011;11809;56.390;-3.266;2024-03-25T01:12:28;3.05;;;1.00;;
23280;SDS011;11809;56.390;-3.266;2024-03-25T01:14:54;3.28;;;0.73;;
23280;SDS011;11809;56.390;-3.266;2024-03-25T01:17:21;2.60;;;1.00;;
23280;SDS011;11809;56.390;-3.266;2024-03-25T01:19:47;2.80;;;1.10;;
23280;SDS011;11809;56.390;-3.266;2024-03-25T01:22:13;3.67;;;0.93;;
23280;SDS011;11809;56.390;-3.266;2024-03-25T01:24:40;4.22;;;1.23;;
23280;SDS011;11809;56.390;-3.266;2024-03-25T01:27:08;7.03;;;1.30;;
23280;SDS011;11809;56.390;-3.266;2024-03-25T01:29:35;6.97;;;1.50;;
23280;SDS011;11809;56.390;-3.266;2024-03-25T01:32:01;7.57;;;1.40;;
23280;SDS011;11809;56.390;-3.266;2024-03-25T01:34:28;2.90;;;1.13;;
23280;SDS011;11809;56.390;-3.266;2024-03-25T01:36:54;4.32;;;1.48;;
23280;SDS011;11809;56.390;-3.266;2024-03-25T01:39:20;3.40;;;0.98;;
23280;SDS011;11809;56.390;-3.266;2024-03-25T01:41:46;5.53;;;1.20;;
23280;SDS011;11809;56.390;-3.266;2024-03-25T01:44:15;2.63;;;1.30;;
23280;SDS011;11809;56.390;-3.266;2024-03-25T01:46:42;3.28;;;1.20;;
23280;SDS011;11809;56.390;-3.266;2024-03-25T01:49:09;6.40;;;1.60;;
23280;SDS011;11809;56.390;-3.266;2024-03-25T01:51:36;2.80;;;1.20;;
23280;SDS011;11809;56.390;-3.266;2024-03-25T01:54:03;4.53;;;1.17;;
23280;SDS011;11809;56.390;-3.266;2024-03-25T01:56:32;3.45;;;1.00;;
23280;SDS011;11809;56.390;-3.266;2024-03-25T01:59:00;4.07;;;1.50;;
23280;SDS011;11809;56.390;-3.266;2024-03-25T02:01:30;2.65;;;1.30;;
23280;SDS011;11809;56.390;-3.266;2024-03-25T02:03:57;3.72;;;1.48;;
23280;SDS011;11809;56.390;-3.266;2024-03-25T02:06:24;4.75;;;1.20;;
23280;SDS011;11809;56.390;-3.266;2024-03-25T02:08:53;3.35;;;1.13;;
23280;SDS011;11809;56.390;-3.266;2024-03-25T02:11:22;3.53;;;1.42;;
23280;SDS011;11809;56.390;-3.266;2024-03-25T02:13:49;2.55;;;0.95;;
23280;SDS011;11809;56.390;-3.266;2024-03-25T02:16:16;3.08;;;1.08;;
23280;SDS011;11809;56.390;-3.266;2024-03-25T02:18:45;2.92;;;1.10;;
23280;SDS011;11809;56.390;-3.266;2024-03-25T02:21:11;2.63;;;1.05;;
23280;SDS011;11809;56.390;-3.266;2024-03-25T02:23:37;3.50;;;1.05;;
23280;SDS011;11809;56.390;-3.266;2024-03-25T02:26:07;4.20;;;1.00;;
23280;SDS011;11809;56.390;-3.266;2024-03-25T02:28:34;4.00;;;1.15;;
23280;SDS011;11809;56.390;-3.266;2024-03-25T02:31:00;3.58;;;1.20;;
23280;SDS011;11809;56.390;-3.266;2024-03-25T02:33:26;4.68;;;1.20;;
23280;SDS011;11809;56.390;-3.266;2024-03-25T02:35:53;1.77;;;1.00;;
23280;SDS011;11809;56.390;-3.266;2024-03-25T02:38:19;3.58;;;0.90;;
23280;SDS011;11809;56.390;-3.266;2024-03-25T02:40:45;3.00;;;1.30;;
23280;SDS011;11809;56.390;-3.266;2024-03-25T02:43:14;3.45;;;1.20;;
23280;SDS011;11809;56.390;-3.266;2024-03-25T02:45:41;3.08;;;0.88;;
23280;SDS011;11809;56.390;-3.266;2024-03-25T02:48:07;2.53;;;1.05;;
23280;SDS011;11809;56.390;-3.266;2024-03-25T02:50:33;2.20;;;0.93;;
23280;SDS011;11809;56.390;-3.266;2024-03-25T02:53:00;2.78;;;1.17;;
23280;SDS011;11809;56.390;-3.266;2024-03-25T02:55:26;4.32;;;1.10;;
23280;SDS011;11809;56.390;-3.266;2024-03-25T02:57:52;2.70;;;1.08;;
23280;SDS011;11809;56.390;-3.266;2024-03-25T03:00:21;1.98;;;1.15;;
23280;SDS011;11809;56.390;-3.266;2024-03-25T03:02:47;2.83;;;1.20;;
23280;SDS011;11809;56.390;-3.266;2024-03-25T03:05:14;3.17;;;1.25;;
23280;SDS011;11809;56.390;-3.266;2024-03-25T03:07:41;3.50;;;0.90;;
23280;SDS011;11809;56.390;-3.266;2024-03-25T03:10:08;2.70;;;1.10;;
23280;SDS011;11809;56.390;-3.266;2024-03-25T03:12:34;3.55;;;1.30;;
23280;SDS011;11809;56.390;-3.266;2024-03-25T03:15:01;3.35;;;1.23;;
23280;SDS011;11809;56.390;-3.266;2024-03-25T03:17:30;3.92;;;1.33;;
23280;SDS011;11809;56.390;-3.266;2024-03-25T03:19:56;3.53;;;1.20;;
23280;SDS011;11809;56.390;-3.266;2024-03-25T03:22:22;2.17;;;0.90;;
23280;SDS011;11809;56.390;-3.266;2024-03-25T03:24:49;3.28;;;1.20;;
23280;SDS011;11809;56.390;-3.266;2024-03-25T03:27:15;5.47;;;1.60;;
23280;SDS011;11809;56.390;-3.266;2024-03-25T03:29:42;2.88;;;1.40;;
23280;SDS011;11809;56.390;-3.266;2024-03-25T03:32:08;5.70;;;1.52;;
23280;SDS011;11809;56.390;-3.266;2024-03-25T03:34:37;4.40;;;1.20;;
23280;SDS011;11809;56.390;-3.266;2024-03-25T03:37:03;1.90;;;1.25;;
23280;SDS011;11809;56.390;-3.266;2024-03-25T03:39:30;2.78;;;1.10;;
23280;SDS011;11809;56.390;-3.266;2024-03-25T03:41:56;4.25;;;1.30;;
23280;SDS011;11809;56.390;-3.266;2024-03-25T03:44:22;3.50;;;1.40;;
23280;SDS011;11809;56.390;-3.266;2024-03-25T03:46:48;3.42;;;1.40;;
23280;SDS011;11809;56.390;-3.266;2024-03-25T03:49:15;3.70;;;1.38;;
23280;SDS011;11809;56.390;-3.266;2024-03-25T03:51:44;3.03;;;1.40;;
23280;SDS011;11809;56.390;-3.266;2024-03-25T03:54:10;3.42;;;1.60;;
23280;SDS011;11809;56.390;-3.266;2024-03-25T03:56:36;3.75;;;1.48;;
23280;SDS011;11809;56.390;-3.266;2024-03-25T03:59:03;2.50;;;1.20;;
23280;SDS011;11809;56.390;-3.266;2024-03-25T04:01:29;3.63;;;1.63;;
23280;SDS011;11809;56.390;-3.266;2024-03-25T04:03:55;3.33;;;1.40;;
23280;SDS011;11809;56.390;-3.266;2024-03-25T04:06:22;3.83;;;1.20;;
23280;SDS011;11809;56.390;-3.266;2024-03-25T04:08:51;3.80;;;1.42;;
23280;SDS011;11809;56.390;-3.266;2024-03-25T04:11:17;3.75;;;1.42;;
23280;SDS011;11809;56.390;-3.266;2024-03-25T04:13:43;4.00;;;1.30;;
23280;SDS011;11809;56.390;-3.266;2024-03-25T04:16:11;2.03;;;1.20;;
23280;SDS011;11809;56.390;-3.266;2024-03-25T04:18:38;2.28;;;1.08;;
23280;SDS011;11809;56.390;-3.266;2024-03-25T04:21:04;3.38;;;1.63;;
23280;SDS011;11809;56.390;-3.266;2024-03-25T04:23:30;4.10;;;1.45;;
23280;SDS011;11809;56.390;-3.266;2024-03-25T04:26:01;4.75;;;1.67;;
23280;SDS011;11809;56.390;-3.266;2024-03-25T04:28:28;3.70;;;1.52;;
23280;SDS011;11809;56.390;-3.266;2024-03-25T04:30:54;3.38;;;1.30;;
23280;SDS011;11809;56.390;-3.266;2024-03-25T04:33:21;2.08;;;1.13;;
23280;SDS011;11809;56.390;-3.266;2024-03-25T04:35:47;4.00;;;1.52;;
23280;SDS011;11809;56.390;-3.266;2024-03-25T04:38:15;2.58;;;1.40;;
23280;SDS011;11809;56.390;-3.266;2024-03-25T04:40:42;3.50;;;1.20;;
23280;SDS011;11809;56.390;-3.266;2024-03-25T04:43:10;2.30;;;1.20;;
23280;SDS011;11809;56.390;-3.266;2024-03-25T04:45:37;4.53;;;1.50;;
23280;SDS011;11809;56.390;-3.266;2024-03-25T04:48:03;4.25;;;1.30;;
23280;SDS011;11809;56.390;-3.266;2024-03-25T04:50:30;4.30;;;1.50;;
23280;SDS011;11809;56.390;-3.266;2024-03-25T04:52:57;2.85;;;1.50;;
23280;SDS011;11809;56.390;-3.266;2024-03-25T04:55:23;3.90;;;1.40;;
23280;SDS011;11809;56.390;-3.266;2024-03-25T04:57:49;3.83;;;1.50;;
23280;SDS011;11809;56.390;-3.266;2024-03-25T05:00:19;4.40;;;1.40;;
23280;SDS011;11809;56.390;-3.266;2024-03-25T05:02:45;3.40;;;1.10;;
23280;SDS011;11809;56.390;-3.266;2024-03-25T05:05:11;2.58;;;1.27;;
23280;SDS011;11809;56.390;-3.266;2024-03-25T05:07:37;3.40;;;1.45;;
23280;SDS011;11809;56.390;-3.266;2024-03-25T05:10:05;2.70;;;1.17;;
23280;SDS011;11809;56.390;-3.266;2024-03-25T05:12:32;3.92;;;1.33;;
23280;SDS011;11809;56.390;-3.266;2024-03-25T05:14:58;3.50;;;1.50;;
23280;SDS011;11809;56.390;-3.266;2024-03-25T05:17:27;3.30;;;1.27;;
23280;SDS011;11809;56.390;-3.266;2024-03-25T05:19:53;4.00;;;1.40;;
23280;SDS011;11809;56.390;-3.266;2024-03-25T05:22:19;2.75;;;1.35;;
23280;SDS011;11809;56.390;-3.266;2024-03-25T05:24:46;3.03;;;1.35;;
23280;SDS011;11809;56.390;-3.266;2024-03-25T05:27:12;3.80;;;1.40;;
23280;SDS011;11809;56.390;-3.266;2024-03-25T05:29:38;6.68;;;1.50;;
23280;SDS011;11809;56.390;-3.266;2024-03-25T05:32:05;3.53;;;1.48;;
23280;SDS011;11809;56.390;-3.266;2024-03-25T05:34:34;3.17;;;1.20;;
23280;SDS011;11809;56.390;-3.266;2024-03-25T05:37:01;3.97;;;1.10;;
23280;SDS011;11809;56.390;-3.266;2024-03-25T05:39:27;5.25;;;1.55;;
23280;SDS011;11809;56.390;-3.266;2024-03-25T05:41:53;6.72;;;1.30;;
23280;SDS011;11809;56.390;-3.266;2024-03-25T05:44:20;5.28;;;1.30;;
23280;SDS011;11809;56.390;-3.266;2024-03-25T05:46:46;6.00;;;1.38;;
23280;SDS011;11809;56.390;-3.266;2024-03-25T05:49:12;23.83;;;2.08;;
23280;SDS011;11809;56.390;-3.266;2024-03-25T05:51:41;9.32;;;1.70;;
23280;SDS011;11809;56.390;-3.266;2024-03-25T05:54:07;10.50;;;2.00;;
23280;SDS011;11809;56.390;-3.266;2024-03-25T05:56:34;10.07;;;2.00;;
23280;SDS011;11809;56.390;-3.266;2024-03-25T05:59:00;7.10;;;1.55;;
23280;SDS011;11809;56.390;-3.266;2024-03-25T06:01:26;5.78;;;1.75;;
23280;SDS011;11809;56.390;-3.266;2024-03-25T06:03:53;6.43;;;1.52;;
23280;SDS011;11809;56.390;-3.266;2024-03-25T06:06:19;15.57;;;2.15;;
23280;SDS011;11809;56.390;-3.266;2024-03-25T06:08:48;16.60;;;2.15;;
23280;SDS011;11809;56.390;-3.266;2024-03-25T06:11:15;8.82;;;1.40;;
23280;SDS011;11809;56.390;-3.266;2024-03-25T06:13:41;6.68;;;1.48;;
23280;SDS011;11809;56.390;-3.266;2024-03-25T06:16:07;5.50;;;1.70;;
23280;SDS011;11809;56.390;-3.266;2024-03-25T06:18:33;34.88;;;2.85;;
23280;SDS011;11809;56.390;-3.266;2024-03-25T06:21:00;13.73;;;2.03;;
23280;SDS011;11809;56.390;-3.266;2024-03-25T06:23:26;12.02;;;1.80;;
23280;SDS011;11809;56.390;-3.266;2024-03-25T06:25:56;12.02;;;1.98;;
23280;SDS011;11809;56.390;-3.266;2024-03-25T06:28:23;16.08;;;1.85;;
23280;SDS011;11809;56.390;-3.266;2024-03-25T06:30:50;17.70;;;1.85;;
23280;SDS011;11809;56.390;-3.266;2024-03-25T06:33:32;12.40;;;1.75;;
23280;SDS011;11809;56.390;-3.266;2024-03-25T06:36:13;14.82;;;1.80;;
23280;SDS011;11809;56.390;-3.266;2024-03-25T06:38:39;9.82;;;1.85;;
23280;SDS011;11809;56.390;-3.266;2024-03-25T06:41:08;10.50;;;1.40;;
23280;SDS011;11809;56.390;-3.266;2024-03-25T06:43:35;12.98;;;1.42;;
23280;SDS011;11809;56.390;-3.266;2024-03-25T06:46:01;6.80;;;1.40;;
23280;SDS011;11809;56.390;-3.266;2024-03-25T06:48:28;6.28;;;1.10;;
23280;SDS011;11809;56.390;-3.266;2024-03-25T06:50:55;6.68;;;1.10;;
23280;SDS011;11809;56.390;-3.266;2024-03-25T06:53:21;9.52;;;1.60;;
23280;SDS011;11809;56.390;-3.266;2024-03-25T06:55:52;18.45;;;1.77;;
23280;SDS011;11809;56.390;-3.266;2024-03-25T06:58:22;22.83;;;2.00;;
23280;SDS011;11809;56.390;-3.266;2024-03-25T07:00:49;12.05;;;1.30;;
23280;SDS011;11809;56.390;-3.266;2024-03-25T07:03:16;15.80;;;1.60;;
23280;SDS011;11809;56.390;-3.266;2024-03-25T07:05:44;9.80;;;1.23;;
23280;SDS011;11809;56.390;-3.266;2024-03-25T07:08:11;7.10;;;1.13;;
23280;SDS011;11809;56.390;-3.266;2024-03-25T07:10:37;10.10;;;1.00;;
23280;SDS011;11809;56.390;-3.266;2024-03-25T07:13:03;10.60;;;1.27;;
23280;SDS011;11809;56.390;-3.266;2024-03-25T07:15:33;10.60;;;1.50;;
23280;SDS011;11809;56.390;-3.266;2024-03-25T07:17:59;15.77;;;1.30;;
23280;SDS011;11809;56.390;-3.266;2024-03-25T07:20:26;10.85;;;1.50;;
23280;SDS011;11809;56.390;-3.266;2024-03-25T07:22:52;8.85;;;1.20;;
23280;SDS011;11809;56.390;-3.266;2024-03-25T07:25:19;11.43;;;1.38;;
23280;SDS011;11809;56.390;-3.266;2024-03-25T07:27:45;12.30;;;1.50;;
23280;SDS011;11809;56.390;-3.266;2024-03-25T07:30:12;8.38;;;1.48;;
23280;SDS011;11809;56.390;-3.266;2024-03-25T07:32:41;8.70;;;1.17;;
23280;SDS011;11809;56.390;-3.266;2024-03-25T07:35:07;31.58;;;2.38;;
23280;SDS011;11809;56.390;-3.266;2024-03-25T07:37:34;16.02;;;2.05;;
23280;SDS011;11809;56.390;-3.266;2024-03-25T07:40:00;12.68;;;1.58;;
23280;SDS011;11809;56.390;-3.266;2024-03-25T07:42:27;8.20;;;1.13;;
23280;SDS011;11809;56.390;-3.266;2024-03-25T07:44:53;5.28;;;0.90;;
23280;SDS011;11809;56.390;-3.266;2024-03-25T07:47:20;7.97;;;1.50;;
23280;SDS011;11809;56.390;-3.266;2024-03-25T07:49:49;4.93;;;1.30;;
23280;SDS011;11809;56.390;-3.266;2024-03-25T07:52:15;7.25;;;1.40;;
23280;SDS011;11809;56.390;-3.266;2024-03-25T07:54:41;5.80;;;1.30;;
23280;SDS011;11809;56.390;-3.266;2024-03-25T07:57:08;6.70;;;1.10;;
23280;SDS011;11809;56.390;-3.266;2024-03-25T07:59:34;7.10;;;1.58;;
23280;SDS011;11809;56.390;-3.266;2024-03-25T08:02:01;9.65;;;1.33;;
23280;SDS011;11809;56.390;-3.266;2024-03-25T08:04:28;7.97;;;1.42;;
23280;SDS011;11809;56.390;-3.266;2024-03-25T08:06:57;7.45;;;1.10;;
23280;SDS011;11809;56.390;-3.266;2024-03-25T08:09:23;4.47;;;0.80;;
23280;SDS011;11809;56.390;-3.266;2024-03-25T08:11:50;5.07;;;1.17;;
23280;SDS011;11809;56.390;-3.266;2024-03-25T08:14:16;6.72;;;1.17;;
23280;SDS011;11809;56.390;-3.266;2024-03-25T08:16:43;5.97;;;1.10;;
23280;SDS011;11809;56.390;-3.266;2024-03-25T08:19:09;4.63;;;1.27;;
23280;SDS011;11809;56.390;-3.266;2024-03-25T08:21:36;6.03;;;1.10;;
23280;SDS011;11809;56.390;-3.266;2024-03-25T08:24:05;4.07;;;1.08;;
23280;SDS011;11809;56.390;-3.266;2024-03-25T08:26:32;5.10;;;1.02;;
23280;SDS011;11809;56.390;-3.266;2024-03-25T08:28:58;2.13;;;0.80;;
23280;SDS011;11809;56.390;-3.266;2024-03-25T08:31:25;3.08;;;0.90;;
23280;SDS011;11809;56.390;-3.266;2024-03-25T08:33:51;2.83;;;0.98;;
23280;SDS011;11809;56.390;-3.266;2024-03-25T08:36:18;3.00;;;0.98;;
23280;SDS011;11809;56.390;-3.266;2024-03-25T08:38:44;3.90;;;0.95;;
23280;SDS011;11809;56.390;-3.266;2024-03-25T08:41:13;9.32;;;1.20;;
23280;SDS011;11809;56.390;-3.266;2024-03-25T08:43:40;5.30;;;0.90;;
23280;SDS011;11809;56.390;-3.266;2024-03-25T08:46:07;4.72;;;1.30;;
23280;SDS011;11809;56.390;-3.266;2024-03-25T08:48:34;4.47;;;0.90;;
23280;SDS011;11809;56.390;-3.266;2024-03-25T08:51:00;4.13;;;0.95;;
23280;SDS011;11809;56.390;-3.266;2024-03-25T08:53:27;2.90;;;0.75;;
23280;SDS011;11809;56.390;-3.266;2024-03-25T08:55:58;5.88;;;1.00;;
23280;SDS011;11809;56.390;-3.266;2024-03-25T08:58:27;3.83;;;1.15;;
23280;SDS011;11809;56.390;-3.266;2024-03-25T09:00:54;4.22;;;0.90;;
23280;SDS011;11809;56.390;-3.266;2024-03-25T09:03:20;3.63;;;1.10;;
23280;SDS011;11809;56.390;-3.266;2024-03-25T09:05:47;4.22;;;1.00;;
23280;SDS011;11809;56.390;-3.266;2024-03-25T09:08:13;2.33;;;0.70;;
23280;SDS011;11809;56.390;-3.266;2024-03-25T09:10:43;1.83;;;0.73;;
23280;SDS011;11809;56.390;-3.266;2024-03-25T09:13:27;5.18;;;1.10;;
23280;SDS011;11809;56.390;-3.266;2024-03-25T09:15:54;3.22;;;0.90;;
23280;SDS011;11809;56.390;-3.266;2024-03-25T09:18:20;2.72;;;0.75;;
23280;SDS011;11809;56.390;-3.266;2024-03-25T09:20:47;1.88;;;0.70;;
23280;SDS011;11809;56.390;-3.266;2024-03-25T09:23:13;3.13;;;0.80;;
23280;SDS011;11809;56.390;-3.266;2024-03-25T09:25:40;2.20;;;0.70;;
23280;SDS011;11809;56.390;-3.266;2024-03-25T09:28:17;4.10;;;0.77;;
23280;SDS011;11809;56.390;-3.266;2024-03-25T09:30:47;3.03;;;0.82;;
23280;SDS011;11809;56.390;-3.266;2024-03-25T09:33:13;2.83;;;0.80;;
23280;SDS011;11809;56.390;-3.266;2024-03-25T09:35:40;4.63;;;0.90;;
23280;SDS011;11809;56.390;-3.266;2024-03-25T09:38:07;2.35;;;0.70;;
23280;SDS011;11809;56.390;-3.266;2024-03-25T09:40:34;4.15;;;1.02;;
23280;SDS011;11809;56.390;-3.266;2024-03-25T09:43:02;3.08;;;0.80;;
23280;SDS011;11809;56.390;-3.266;2024-03-25T09:45:29;2.85;;;0.80;;
23280;SDS011;11809;56.390;-3.266;2024-03-25T09:48:00;3.30;;;0.90;;
23280;SDS011;11809;56.390;-3.266;2024-03-25T09:50:31;4.90;;;0.82;;
23280;SDS011;11809;56.390;-3.266;2024-03-25T09:52:58;2.42;;;0.70;;
23280;SDS011;11809;56.390;-3.266;2024-03-25T09:55:25;6.15;;;0.95;;
23280;SDS011;11809;56.390;-3.266;2024-03-25T09:57:51;2.15;;;0.80;;
23280;SDS011;11809;56.390;-3.266;2024-03-25T10:00:19;4.78;;;1.00;;
23280;SDS011;11809;56.390;-3.266;2024-03-25T10:02:46;2.53;;;0.80;;
23280;SDS011;11809;56.390;-3.266;2024-03-25T10:05:17;4.35;;;1.00;;
23280;SDS011;11809;56.390;-3.266;2024-03-25T10:07:44;2.00;;;0.70;;
23280;SDS011;11809;56.390;-3.266;2024-03-25T10:10:11;2.15;;;0.90;;
23280;SDS011;11809;56.390;-3.266;2024-03-25T10:12:38;2.30;;;0.68;;
23280;SDS011;11809;56.390;-3.266;2024-03-25T10:15:06;3.67;;;0.90;;
23280;SDS011;11809;56.390;-3.266;2024-03-25T10:17:33;3.13;;;1.05;;
23280;SDS011;11809;56.390;-3.266;2024-03-25T10:19:59;2.47;;;0.77;;
23280;SDS011;11809;56.390;-3.266;2024-03-25T10:22:28;3.95;;;1.27;;
23280;SDS011;11809;56.390;-3.266;2024-03-25T10:24:55;2.20;;;0.90;;
23280;SDS011;11809;56.390;-3.266;2024-03-25T10:27:21;2.72;;;0.90;;
23280;SDS011;11809;56.390;-3.266;2024-03-25T10:29:52;3.35;;;0.93;;
23280;SDS011;11809;56.390;-3.266;2024-03-25T10:32:20;3.17;;;0.90;;
23280;SDS011;11809;56.390;-3.266;2024-03-25T10:34:47;4.90;;;1.10;;
23280;SDS011;11809;56.390;-3.266;2024-03-25T10:37:14;8.38;;;1.50;;
23280;SDS011;11809;56.390;-3.266;2024-03-25T10:39:47;9.32;;;1.33;;
23280;SDS011;11809;56.390;-3.266;2024-03-25T10:42:15;3.38;;;0.93;;
23280;SDS011;11809;56.390;-3.266;2024-03-25T10:44:45;6.03;;;1.13;;
23280;SDS011;11809;56.390;-3.266;2024-03-25T10:47:14;4.47;;;1.00;;
23280;SDS011;11809;56.390;-3.266;2024-03-25T10:49:48;2.92;;;0.80;;
23280;SDS011;11809;56.390;-3.266;2024-03-25T10:52:16;2.67;;;0.80;;
23280;SDS011;11809;56.390;-3.266;2024-03-25T10:54:49;4.45;;;1.30;;
23280;SDS011;11809;56.390;-3.266;2024-03-25T10:57:17;3.03;;;0.80;;
23280;SDS011;11809;56.390;-3.266;2024-03-25T10:59:48;2.70;;;0.93;;
23280;SDS011;11809;56.390;-3.266;2024-03-25T11:02:16;3.80;;;1.02;;
23280;SDS011;11809;56.390;-3.266;2024-03-25T11:04:43;2.95;;;0.90;;
23280;SDS011;11809;56.390;-3.266;2024-03-25T11:07:11;1.88;;;0.88;;
23280;SDS011;11809;56.390;-3.266;2024-03-25T11:09:39;2.55;;;0.90;;
23280;SDS011;11809;56.390;-3.266;2024-03-25T11:12:10;2.13;;;0.90;;
23280;SDS011;11809;56.390;-3.266;2024-03-25T11:14:38;5.38;;;1.00;;
23280;SDS011;11809;56.390;-3.266;2024-03-25T11:17:14;8.20;;;1.15;;
23280;SDS011;11809;56.390;-3.266;2024-03-25T11:19:41;2.85;;;0.80;;
23280;SDS011;11809;56.390;-3.266;2024-03-25T11:22:08;1.48;;;0.70;;
23280;SDS011;11809;56.390;-3.266;2024-03-25T11:24:37;5.35;;;1.10;;
23280;SDS011;11809;56.390;-3.266;2024-03-25T11:27:11;4.43;;;0.80;;
23280;SDS011;11809;56.390;-3.266;2024-03-25T11:29:38;2.85;;;0.90;;
23280;SDS011;11809;56.390;-3.266;2024-03-25T11:32:05;5.22;;;0.70;;
23280;SDS011;11809;56.390;-3.266;2024-03-25T11:34:32;1.75;;;0.70;;
23280;SDS011;11809;56.390;-3.266;2024-03-25T11:36:58;3.65;;;0.73;;
23280;SDS011;11809;56.390;-3.266;2024-03-25T11:39:25;2.80;;;0.90;;
23280;SDS011;11809;56.390;-3.266;2024-03-25T11:41:51;2.75;;;0.77;;
23280;SDS011;11809;56.390;-3.266;2024-03-25T11:44:21;3.70;;;0.90;;
23280;SDS011;11809;56.390;-3.266;2024-03-25T11:46:48;3.67;;;1.08;;
23280;SDS011;11809;56.390;-3.266;2024-03-25T11:49:16;2.33;;;0.90;;
23280;SDS011;11809;56.390;-3.266;2024-03-25T11:51:43;2.22;;;0.70;;
23280;SDS011;11809;56.390;-3.266;2024-03-25T11:54:10;3.70;;;0.90;;
23280;SDS011;11809;56.390;-3.266;2024-03-25T11:56:37;2.05;;;0.90;;
23280;SDS011;11809;56.390;-3.266;2024-03-25T11:59:03;2.60;;;0.95;;
23280;SDS011;11809;56.390;-3.266;2024-03-25T12:01:32;2.75;;;0.70;;
23280;SDS011;11809;56.390;-3.266;2024-03-25T12:04:09;2.28;;;1.13;;
23280;SDS011;11809;56.390;-3.266;2024-03-25T12:06:36;2.75;;;0.88;;
23280;SDS011;11809;56.390;-3.266;2024-03-25T12:09:02;3.70;;;0.80;;
23280;SDS011;11809;56.390;-3.266;2024-03-25T12:11:44;3.33;;;0.70;;
23280;SDS011;11809;56.390;-3.266;2024-03-25T12:14:11;2.00;;;0.80;;
23280;SDS011;11809;56.390;-3.266;2024-03-25T12:16:40;1.73;;;0.82;;
23280;SDS011;11809;56.390;-3.266;2024-03-25T12:19:07;3.03;;;0.70;;
23280;SDS011;11809;56.390;-3.266;2024-03-25T12:21:34;2.47;;;0.90;;
23280;SDS011;11809;56.390;-3.266;2024-03-25T12:24:00;1.00;;;0.60;;
23280;SDS011;11809;56.390;-3.266;2024-03-25T12:26:27;2.42;;;0.90;;
23280;SDS011;11809;56.390;-3.266;2024-03-25T12:28:53;3.05;;;0.98;;
23280;SDS011;11809;56.390;-3.266;2024-03-25T12:31:20;4.43;;;1.05;;
23280;SDS011;11809;56.390;-3.266;2024-03-25T12:33:52;1.83;;;0.63;;
23280;SDS011;11809;56.390;-3.266;2024-03-25T12:36:20;2.65;;;0.73;;
23280;SDS011;11809;56.390;-3.266;2024-03-25T12:38:53;3.95;;;0.80;;
23280;SDS011;11809;56.390;-3.266;2024-03-25T12:41:21;3.42;;;0.65;;
23280;SDS011;11809;56.390;-3.266;2024-03-25T12:43:49;1.25;;;0.68;;
23280;SDS011;11809;56.390;-3.266;2024-03-25T12:46:16;2.38;;;0.80;;
23280;SDS011;11809;56.390;-3.266;2024-03-25T12:48:43;2.40;;;0.70;;
23280;SDS011;11809;56.390;-3.266;2024-03-25T12:51:14;2.55;;;0.68;;
23280;SDS011;11809;56.390;-3.266;2024-03-25T12:53:41;3.35;;;1.05;;
23280;SDS011;11809;56.390;-3.266;2024-03-25T12:56:08;2.42;;;0.75;;
23280;SDS011;11809;56.390;-3.266;2024-03-25T12:58:35;2.95;;;0.80;;
23280;SDS011;11809;56.390;-3.266;2024-03-25T13:01:01;1.80;;;0.70;;
23280;SDS011;11809;56.390;-3.266;2024-03-25T13:03:30;3.13;;;0.85;;
23280;SDS011;11809;56.390;-3.266;2024-03-25T13:05:56;1.75;;;0.68;;
23280;SDS011;11809;56.390;-3.266;2024-03-25T13:08:26;2.00;;;0.70;;
23280;SDS011;11809;56.390;-3.266;2024-03-25T13:10:52;2.83;;;0.75;;
23280;SDS011;11809;56.390;-3.266;2024-03-25T13:13:19;3.10;;;0.73;;
23280;SDS011;11809;56.390;-3.266;2024-03-25T13:15:46;2.28;;;0.80;;
23280;SDS011;11809;56.390;-3.266;2024-03-25T13:18:12;2.13;;;0.70;;
23280;SDS011;11809;56.390;-3.266;2024-03-25T13:20:39;2.13;;;0.80;;
23280;SDS011;11809;56.390;-3.266;2024-03-25T13:23:05;2.72;;;0.90;;
23280;SDS011;11809;56.390;-3.266;2024-03-25T13:25:34;1.58;;;0.55;;
23280;SDS011;11809;56.390;-3.266;2024-03-25T13:28:01;1.60;;;0.70;;
23280;SDS011;11809;56.390;-3.266;2024-03-25T13:30:28;3.67;;;0.85;;
23280;SDS011;11809;56.390;-3.266;2024-03-25T13:32:57;2.35;;;0.80;;
23280;SDS011;11809;56.390;-3.266;2024-03-25T13:35:24;1.75;;;0.57;;
23280;SDS011;11809;56.390;-3.266;2024-03-25T13:37:50;2.70;;;0.80;;
23280;SDS011;11809;56.390;-3.266;2024-03-25T13:40:17;4.18;;;0.70;;
23280;SDS011;11809;56.390;-3.266;2024-03-25T13:42:46;3.35;;;0.80;;
23280;SDS011;11809;56.390;-3.266;2024-03-25T13:45:12;4.20;;;0.95;;
23280;SDS011;11809;56.390;-3.266;2024-03-25T13:47:38;1.98;;;0.82;;
23280;SDS011;11809;56.390;-3.266;2024-03-25T13:50:05;1.58;;;0.60;;
23280;SDS011;11809;56.390;-3.266;2024-03-25T13:52:33;3.05;;;0.70;;
23280;SDS011;11809;56.390;-3.266;2024-03-25T13:54:59;2.60;;;0.80;;
23280;SDS011;11809;56.390;-3.266;2024-03-25T13:57:26;1.42;;;0.65;;
23280;SDS011;11809;56.390;-3.266;2024-03-25T13:59:55;2.03;;;0.60;;
23280;SDS011;11809;56.390;-3.266;2024-03-25T14:02:23;2.58;;;0.50;;
23280;SDS011;11809;56.390;-3.266;2024-03-25T14:04:49;1.65;;;0.40;;
23280;SDS011;11809;56.390;-3.266;2024-03-25T14:07:16;2.65;;;0.70;;
23280;SDS011;11809;56.390;-3.266;2024-03-25T14:09:43;2.65;;;0.68;;
23280;SDS011;11809;56.390;-3.266;2024-03-25T14:12:09;2.65;;;0.70;;
23280;SDS011;11809;56.390;-3.266;2024-03-25T14:14:36;1.90;;;0.63;;
23280;SDS011;11809;56.390;-3.266;2024-03-25T14:17:05;3.25;;;0.60;;
23280;SDS011;11809;56.390;-3.266;2024-03-25T14:19:32;3.42;;;0.50;;
23280;SDS011;11809;56.390;-3.266;2024-03-25T14:22:01;5.72;;;0.73;;
23280;SDS011;11809;56.390;-3.266;2024-03-25T14:24:27;3.28;;;0.98;;
23280;SDS011;11809;56.390;-3.266;2024-03-25T14:26:54;2.38;;;0.60;;
23280;SDS011;11809;56.390;-3.266;2024-03-25T14:29:21;4.88;;;0.88;;
23280;SDS011;11809;56.390;-3.266;2024-03-25T14:31:48;3.55;;;0.60;;
23280;SDS011;11809;56.390;-3.266;2024-03-25T14:34:17;1.13;;;0.60;;